Wetterdaten: Samstag, 13.06.2015
Datum Zeit Temp. A. Feuchte A. Luftdruck Regen Wind Richtung Richtung Sonnenschein ET UV Solar Taupunkt Windchill Windben Empfang
13.06.2015 00:00 18,6 C 78 % 1008,1 hPa 0,0 l/m 0,0 km/h (0 Bft) S 180 0 min 0,000 mm 0,0 UV-I 0 W/m 14,7 C 18,6 C 0,0 km/h (0 Bft) 0,00 %
13.06.2015 01:00 17,9 C 79 % 1007,8 hPa 0,0 l/m 0,0 km/h (0 Bft) SO 130 0 min 0,000 mm 0,0 UV-I 0 W/m 14,2 C 17,9 C 0,0 km/h (0 Bft) 0,00 %
13.06.2015 02:00 16,3 C 87 % 1008,0 hPa 0,0 l/m 0,0 km/h (0 Bft) S 180 0 min 0,000 mm 0,0 UV-I 0 W/m 14,1 C 16,3 C 0,0 km/h (0 Bft) 0,00 %
13.06.2015 03:00 16,1 C 85 % 1007,8 hPa 0,0 l/m 0,0 km/h (0 Bft) SO 130 0 min 0,000 mm 0,0 UV-I 0 W/m 13,6 C 16,1 C 0,0 km/h (0 Bft) 0,00 %
13.06.2015 04:00 14,9 C 90 % 1007,9 hPa 0,0 l/m 0,0 km/h (0 Bft) O-SO 120 0 min 0,000 mm 0,0 UV-I 0 W/m 13,3 C 14,9 C 0,0 km/h (0 Bft) 0,00 %
13.06.2015 05:00 14,5 C 90 % 1007,6 hPa 0,0 l/m 0,0 km/h (0 Bft) SO 130 0 min 0,000 mm 0,0 UV-I 1 W/m 12,9 C 14,5 C 0,0 km/h (0 Bft) 0,00 %
13.06.2015 06:00 15,5 C 83 % 1008,2 hPa 0,0 l/m 0,0 km/h (0 Bft) S 180 60 min 0,000 mm 0,0 UV-I 126 W/m 12,6 C 15,5 C 0,0 km/h (0 Bft) 0,00 %
13.06.2015 07:00 20,7 C 61 % 1007,1 hPa 0,0 l/m 0,0 km/h (0 Bft) O-SO 120 60 min 0,000 mm 1,0 UV-I 344 W/m 12,9 C 20,7 C 0,0 km/h (0 Bft) 0,00 %
13.06.2015 08:00 21,7 C 63 % 1007,2 hPa 0,0 l/m 0,6 km/h (0 Bft) NW 320 60 min 0,000 mm 2,0 UV-I 477 W/m 14,3 C 21,7 C 4,0 km/h (1 Bft) 0,00 %
13.06.2015 09:00 24,4 C 53 % 1007,3 hPa 0,0 l/m 4,7 km/h (1 Bft) O 90 60 min 0,000 mm 2,0 UV-I 626 W/m 14,2 C 24,4 C 7,9 km/h (2 Bft) 0,00 %
13.06.2015 10:00 24,8 C 53 % 1007,2 hPa 0,0 l/m 0,0 km/h (0 Bft) SO 130 60 min 0,000 mm 3,0 UV-I 653 W/m 14,6 C 24,8 C 0,0 km/h (0 Bft) 0,00 %
13.06.2015 11:00 27,3 C 50 % 1006,9 hPa 0,0 l/m 0,3 km/h (0 Bft) NO 40 60 min 0,000 mm 4,0 UV-I 745 W/m 15,9 C 27,3 C 4,0 km/h (1 Bft) 0,00 %
13.06.2015 12:00 28,4 C 43 % 1006,7 hPa 0,0 l/m 0,0 km/h (0 Bft) S-SO 160 60 min 0,000 mm 4,0 UV-I 757 W/m 14,6 C 28,4 C 0,0 km/h (0 Bft) 0,00 %
13.06.2015 13:00 27,9 C 42 % 1006,4 hPa 0,0 l/m 1,8 km/h (1 Bft) SW 230 0 min 0,000 mm 2,0 UV-I 448 W/m 13,8 C 27,9 C 4,0 km/h (1 Bft) 0,00 %
13.06.2015 14:00 31,2 C 38 % 1005,9 hPa 0,0 l/m 0,0 km/h (0 Bft) SO 130 60 min 0,000 mm 6,0 UV-I 1113 W/m 15,2 C 31,2 C 0,0 km/h (0 Bft) 0,00 %
13.06.2015 15:00 29,7 C 39 % 1005,8 hPa 0,0 l/m 0,0 km/h (0 Bft) O-SO 120 60 min 0,000 mm 4,0 UV-I 766 W/m 14,2 C 29,7 C 0,0 km/h (0 Bft) 0,00 %
13.06.2015 16:00 28,2 C 42 % 1006,0 hPa 0,0 l/m 0,6 km/h (0 Bft) O-SO 120 0 min 0,000 mm 1,0 UV-I 127 W/m 14,0 C 28,2 C 4,0 km/h (1 Bft) 0,00 %
13.06.2015 17:00 22,7 C 63 % 1007,8 hPa 0,0 l/m 0,0 km/h (0 Bft) SW 230 0 min 0,000 mm 0,0 UV-I 25 W/m 15,3 C 22,7 C 0,0 km/h (0 Bft) 0,00 %
13.06.2015 18:00 20,9 C 72 % 1007,4 hPa 0,0 l/m 0,0 km/h (0 Bft) SW 220 0 min 0,000 mm 0,0 UV-I 53 W/m 15,7 C 20,9 C 0,0 km/h (0 Bft) 0,00 %
13.06.2015 19:00 20,4 C 72 % 1007,4 hPa 0,0 l/m 0,0 km/h (0 Bft) SO 130 0 min 0,000 mm 1,0 UV-I 133 W/m 15,2 C 20,4 C 0,0 km/h (0 Bft) 0,00 %
13.06.2015 20:00 21,7 C 67 % 1007,2 hPa 0,0 l/m 1,4 km/h (1 Bft) W-SW 250 60 min 0,000 mm 0,0 UV-I 235 W/m 15,3 C 21,7 C 4,0 km/h (1 Bft) 0,00 %
13.06.2015 21:00 19,5 C 78 % 1006,9 hPa 0,0 l/m 0,0 km/h (0 Bft) S 180 0 min 0,000 mm 0,0 UV-I 0 W/m 15,6 C 19,5 C 0,0 km/h (0 Bft) 0,00 %
13.06.2015 22:00 18,7 C 78 % 1007,7 hPa 0,0 l/m 0,0 km/h (0 Bft) S 180 0 min 0,000 mm 0,0 UV-I 0 W/m 14,8 C 18,7 C 0,0 km/h (0 Bft) 0,00 %
13.06.2015 23:00 18,9 C 73 % 1008,1 hPa 0,0 l/m 0,0 km/h (0 Bft) S 180 0 min 0,000 mm 0,0 UV-I 0 W/m 13,9 C 18,9 C 0,0 km/h (0 Bft) 0,00 %
_ Min-Zeit 05:00 14:00 15:00 - 00:00 - - - - - - 06:00 05:00 00:00 00:00
Minimum _ 14,5 C 38 % 1005,8 hPa - 0,0 km/h (0 Bft) - - - - - - 12,6 C 14,5 C 0,0 km/h (0 Bft) 0,00 %
_ Max-Zeit 14:00 04:00 06:00 00:00 09:00 - - 06:00 00:00 14:00 14:00 11:00 14:00 09:00 00:00
Maximum _ 31,2 C 90 % 1008,2 hPa 0,0 l/m 4,7 km/h
O (1 Bft)
- - 60 min 0,000 mm 6,0 UV-I 1113 W/m 15,9 C 31,2 C 7,9 km/h
O (2 Bft)
0,00 %
Durchschnitt _ 21,8 C 65 % 1007,2 hPa #0,0 l/m 0,4 km/h (0 Bft) O - #10:00 h #0,000 mm 2,7 UV-I 414 W/m 14,4 C 21,8 C 1,2 km/h (1 Bft) 0,00 %